createdAt,value
2019-05-13T00:02:04.946Z,81.80
2019-05-13T00:04:34.599Z,81.90
2019-05-13T00:07:04.739Z,81.80
2019-05-13T00:09:34.327Z,82.20
2019-05-13T00:12:04.603Z,82.30
2019-05-13T00:14:34.634Z,82.40
2019-05-13T00:17:04.585Z,82.50
2019-05-13T00:19:34.027Z,82.30
2019-05-13T00:22:03.976Z,82.60
2019-05-13T00:24:34.049Z,82.30
2019-05-13T00:27:04.078Z,82.70
2019-05-13T00:29:34.167Z,82.90
2019-05-13T00:32:04.723Z,82.90
2019-05-13T00:34:35.358Z,83.10
2019-05-13T00:37:11.088Z,82.80
2019-05-13T00:39:36.661Z,82.70
2019-05-13T00:42:06.218Z,82.80
2019-05-13T00:44:35.726Z,82.90
2019-05-13T00:47:05.013Z,82.90
2019-05-13T00:49:34.652Z,83.10
2019-05-13T00:52:04.425Z,83.20
2019-05-13T00:54:34.214Z,83.20
2019-05-13T00:57:04.346Z,83.20
2019-05-13T00:59:34.266Z,83.30
2019-05-13T01:02:04.673Z,83.40
2019-05-13T01:04:34.179Z,83.50
2019-05-13T01:07:04.325Z,83.80
2019-05-13T01:09:34.484Z,83.90
2019-05-13T01:12:04.802Z,84.10
2019-05-13T01:14:34.382Z,84.20
2019-05-13T01:17:04.171Z,84.30
2019-05-13T01:19:34.847Z,84.50
2019-05-13T01:22:04.518Z,84.50
2019-05-13T01:24:34.074Z,84.60
2019-05-13T01:27:04.317Z,84.90
2019-05-13T01:29:34.668Z,84.90
2019-05-13T01:32:04.693Z,85.10
2019-05-13T01:34:34.243Z,85.10
2019-05-13T01:37:04.169Z,85.10
2019-05-13T01:39:34.994Z,85.30
2019-05-13T01:42:04.694Z,85.60
2019-05-13T01:44:33.967Z,85.80
2019-05-13T01:47:04.549Z,85.80
2019-05-13T01:49:34.076Z,85.90
2019-05-13T01:52:04.005Z,85.90
2019-05-13T01:54:34.065Z,86.00
2019-05-13T01:57:04.436Z,85.90
2019-05-13T01:59:34.815Z,86.10
2019-05-13T02:02:04.919Z,86.10
2019-05-13T02:04:34.181Z,86.40
2019-05-13T02:07:04.003Z,86.20
2019-05-13T02:09:34.275Z,86.30
2019-05-13T02:12:04.925Z,86.20
2019-05-13T02:14:35.582Z,86.40
2019-05-13T02:17:04.863Z,86.50
2019-05-13T02:19:34.453Z,86.50
2019-05-13T02:22:04.810Z,86.70
2019-05-13T02:24:34.452Z,86.80
2019-05-13T02:27:04.175Z,86.80
2019-05-13T02:29:34.399Z,86.90
2019-05-13T02:32:04.219Z,86.90
2019-05-13T02:34:33.744Z,87.00
2019-05-13T02:37:03.529Z,86.90
2019-05-13T02:39:33.180Z,87.00
2019-05-13T02:42:03.888Z,87.30
2019-05-13T02:44:34.225Z,87.30
2019-05-13T02:47:03.896Z,87.30
2019-05-13T02:49:33.547Z,87.10
2019-05-13T02:52:04.162Z,87.70
2019-05-13T02:54:34.411Z,87.40
2019-05-13T02:57:04.330Z,87.90
2019-05-13T02:59:34.048Z,87.70
2019-05-13T03:02:03.989Z,87.80
2019-05-13T03:04:33.627Z,87.60
2019-05-13T03:07:03.322Z,88.10
2019-05-13T03:09:32.965Z,87.90
2019-05-13T03:12:03.958Z,87.80
2019-05-13T03:14:33.215Z,87.70
2019-05-13T03:17:04.138Z,87.60
2019-05-13T03:19:33.515Z,88.00
2019-05-13T03:22:03.365Z,88.30
2019-05-13T03:24:34.114Z,88.50
2019-05-13T03:27:03.725Z,88.50
2019-05-13T03:29:33.327Z,88.70
2019-05-13T03:32:06.788Z,88.50
2019-05-13T03:34:35.777Z,88.50
2019-05-13T03:37:06.728Z,88.20
2019-05-13T03:39:35.934Z,88.40
2019-05-13T03:42:05.468Z,88.50
2019-05-13T03:44:36.313Z,88.80
2019-05-13T03:47:06.609Z,89.00
2019-05-13T03:49:36.761Z,88.90
2019-05-13T03:52:06.353Z,88.60
2019-05-13T03:54:35.655Z,88.90
2019-05-13T03:57:05.301Z,88.70
2019-05-13T03:59:34.593Z,88.80
2019-05-13T04:02:04.130Z,89.10
2019-05-13T04:04:33.872Z,89.90
2019-05-13T04:07:04.202Z,89.90
2019-05-13T04:09:36.232Z,89.90
2019-05-13T04:12:06.422Z,90.10
2019-05-13T04:14:36.019Z,90.60
2019-05-13T04:17:05.291Z,91.00
2019-05-13T04:19:34.594Z,91.00
2019-05-13T04:22:04.023Z,91.20
2019-05-13T04:24:34.497Z,90.90
2019-05-13T04:27:04.129Z,91.00
2019-05-13T04:29:33.783Z,90.90
2019-05-13T04:32:04.179Z,90.60
2019-05-13T04:34:34.161Z,90.60
2019-05-13T04:37:03.758Z,90.70
2019-05-13T04:39:45.244Z,90.60
2019-05-13T04:42:04.297Z,90.60
2019-05-13T04:44:34.051Z,90.60
2019-05-13T04:47:04.237Z,91.20
2019-05-13T04:49:33.751Z,91.20
2019-05-13T04:52:04.056Z,91.40
2019-05-13T04:54:34.744Z,91.70
2019-05-13T04:57:04.220Z,91.70
2019-05-13T04:59:35.835Z,91.80
2019-05-13T05:02:41.993Z,91.90
2019-05-13T05:05:22.522Z,92.40
2019-05-13T05:08:03.128Z,92.50
2019-05-13T05:10:38.809Z,92.50
2019-05-13T05:13:39.184Z,92.40
2019-05-13T05:16:17.124Z,92.60
2019-05-13T05:19:23.803Z,91.90
2019-05-13T05:22:08.247Z,91.70
2019-05-13T05:24:52.599Z,91.00
2019-05-13T05:27:41.917Z,91.20
2019-05-13T05:30:35.059Z,90.50
2019-05-13T05:33:33.594Z,90.20
2019-05-13T05:36:27.280Z,89.70
2019-05-13T05:39:08.801Z,89.40
2019-05-13T05:41:42.099Z,89.40
2019-05-13T05:44:12.747Z,88.90
2019-05-13T05:46:42.886Z,88.30
2019-05-13T05:49:12.875Z,87.60
2019-05-13T05:51:43.783Z,86.30
2019-05-13T05:54:14.730Z,85.40
2019-05-13T05:56:47.167Z,84.70
2019-05-13T05:59:21.664Z,84.90
2019-05-13T06:01:52.711Z,84.70
2019-05-13T06:04:23.808Z,84.10
2019-05-13T06:06:56.289Z,84.70
2019-05-13T06:09:26.062Z,83.70
2019-05-13T06:11:55.702Z,83.30
2019-05-13T06:14:25.062Z,82.80
2019-05-13T06:16:54.359Z,82.30
2019-05-13T06:19:23.978Z,82.60
2019-05-13T06:21:53.433Z,82.10
2019-05-13T06:24:26.314Z,80.70
2019-05-13T06:26:54.237Z,80.30
2019-05-13T06:29:23.846Z,79.20
2019-05-13T06:31:53.206Z,79.00
2019-05-13T06:34:22.854Z,78.90
2019-05-13T06:36:53.173Z,78.20
2019-05-13T06:39:22.799Z,78.00
2019-05-13T06:41:52.102Z,76.60
2019-05-13T06:44:21.576Z,76.80
2019-05-13T06:46:51.701Z,75.40
2019-05-13T06:49:21.782Z,75.90
2019-05-13T06:51:52.664Z,75.70
2019-05-13T06:54:22.313Z,75.40
2019-05-13T06:56:51.914Z,73.90
2019-05-13T06:59:22.521Z,72.50
2019-05-13T07:01:52.293Z,73.20
2019-05-13T07:04:22.058Z,72.90
2019-05-13T07:07:01.099Z,70.20
2019-05-13T07:09:22.432Z,71.00
2019-05-13T07:11:52.034Z,72.40
2019-05-13T07:14:22.346Z,72.50
2019-05-13T07:16:52.437Z,71.70
2019-05-13T07:19:23.922Z,71.10
2019-05-13T07:21:53.192Z,69.50
2019-05-13T07:24:22.792Z,69.10
2019-05-13T07:26:52.398Z,67.00
2019-05-13T07:29:24.209Z,67.30
2019-05-13T07:31:52.883Z,72.10
2019-05-13T07:34:24.567Z,66.70
2019-05-13T07:36:53.510Z,65.80
2019-05-13T07:39:22.875Z,66.40
2019-05-13T07:41:52.518Z,65.70
2019-05-13T07:44:22.427Z,66.10
2019-05-13T07:46:52.756Z,66.40
2019-05-13T07:49:22.646Z,64.00
2019-05-13T07:51:52.394Z,64.00
2019-05-13T07:54:22.164Z,63.90
2019-05-13T07:56:52.459Z,64.30
2019-05-13T07:59:21.912Z,64.10
2019-05-13T08:01:52.222Z,63.70
2019-05-13T08:04:26.069Z,63.90
2019-05-13T08:06:53.243Z,62.90
2019-05-13T08:09:22.816Z,64.10
2019-05-13T08:12:05.396Z,64.20
2019-05-13T08:14:23.408Z,61.70
2019-05-13T08:16:53.068Z,60.30
2019-05-13T08:19:22.383Z,60.30
2019-05-13T08:21:52.762Z,59.90
2019-05-13T08:24:22.788Z,60.00
2019-05-13T08:26:54.486Z,61.70
2019-05-13T08:29:26.044Z,61.30
2019-05-13T08:31:58.058Z,60.00
2019-05-13T08:34:27.699Z,59.20
2019-05-13T08:36:57.302Z,58.10
2019-05-13T08:39:31.695Z,60.80
2019-05-13T08:42:11.835Z,60.90
2019-05-13T08:44:28.969Z,57.60
2019-05-13T08:47:02.622Z,56.30
2019-05-13T08:49:32.554Z,56.30
2019-05-13T08:52:02.283Z,57.50
2019-05-13T08:54:32.938Z,59.50
2019-05-13T08:57:03.367Z,57.90
2019-05-13T08:59:32.769Z,58.90
2019-05-13T09:02:03.330Z,59.50
2019-05-13T09:04:33.127Z,58.70
2019-05-13T09:07:03.599Z,59.50
2019-05-13T09:09:33.163Z,59.30
2019-05-13T09:12:02.875Z,58.40
2019-05-13T09:14:32.632Z,57.20
2019-05-13T09:17:03.439Z,52.10
2019-05-13T09:19:32.741Z,53.60
2019-05-13T09:22:02.894Z,55.00
2019-05-13T09:24:37.626Z,53.70
2019-05-13T09:27:04.099Z,54.50
2019-05-13T09:29:33.382Z,54.70
2019-05-13T09:34:33.789Z,54.70
2019-05-13T09:37:04.243Z,55.60
2019-05-13T09:39:33.548Z,55.10
2019-05-13T09:42:03.174Z,55.30
2019-05-13T09:44:33.199Z,54.10
2019-05-13T09:47:03.073Z,55.20
2019-05-13T09:49:33.212Z,54.40
2019-05-13T09:52:03.789Z,55.80
2019-05-13T09:54:33.417Z,54.40
2019-05-13T09:57:03.737Z,55.30
2019-05-13T09:59:33.039Z,54.80
2019-05-13T10:02:03.301Z,53.30
2019-05-13T10:04:32.797Z,52.20
2019-05-13T10:07:03.065Z,52.70
2019-05-13T10:09:32.955Z,52.90
2019-05-13T10:12:03.506Z,53.70
2019-05-13T10:14:33.313Z,53.60
2019-05-13T10:17:05.927Z,53.70
2019-05-13T10:19:33.660Z,53.90
2019-05-13T10:22:03.681Z,53.00
2019-05-13T10:24:33.514Z,52.10
2019-05-13T10:27:03.262Z,51.50
2019-05-13T10:29:33.118Z,51.20
2019-05-13T10:32:03.626Z,50.80
2019-05-13T10:34:34.356Z,51.60
2019-05-13T10:37:03.991Z,52.00
2019-05-13T10:39:34.267Z,52.60
2019-05-13T10:42:04.123Z,51.80
2019-05-13T10:44:33.858Z,51.40
2019-05-13T10:47:03.450Z,49.10
2019-05-13T10:49:33.419Z,52.10
2019-05-13T10:52:03.376Z,49.60
2019-05-13T10:54:33.095Z,49.60
2019-05-13T10:57:03.931Z,50.80
2019-05-13T10:59:33.605Z,53.20
2019-05-13T11:02:03.239Z,49.80
2019-05-13T11:04:33.006Z,50.90
2019-05-13T11:07:03.650Z,48.40
2019-05-13T11:09:33.233Z,49.00
2019-05-13T11:12:03.510Z,50.00
2019-05-13T11:14:32.842Z,50.50
2019-05-13T11:17:02.148Z,50.70
2019-05-13T11:19:36.250Z,50.70
2019-05-13T11:22:03.106Z,49.60
2019-05-13T11:24:32.727Z,49.80
2019-05-13T11:27:02.971Z,48.80
2019-05-13T11:29:32.624Z,48.50
2019-05-13T11:32:02.934Z,46.00
2019-05-13T11:34:33.090Z,47.40
2019-05-13T11:37:03.747Z,45.70
2019-05-13T11:39:34.233Z,48.50
2019-05-13T11:42:03.542Z,47.80
2019-05-13T11:44:32.828Z,48.20
2019-05-13T11:47:02.932Z,48.80
2019-05-13T11:49:32.544Z,47.00
2019-05-13T11:52:03.298Z,46.90
2019-05-13T11:54:32.709Z,48.10
2019-05-13T11:57:06.250Z,49.90
2019-05-13T11:59:34.271Z,48.50
2019-05-13T12:02:04.806Z,51.70
2019-05-13T12:04:34.939Z,49.50
2019-05-13T12:07:05.444Z,49.50
2019-05-13T12:09:34.767Z,49.60
2019-05-13T12:12:04.174Z,47.40
2019-05-13T12:14:48.426Z,47.70
2019-05-13T12:17:05.574Z,48.30
2019-05-13T12:19:34.858Z,49.30
2019-05-13T12:22:04.209Z,50.80
2019-05-13T12:24:33.843Z,50.20
2019-05-13T12:27:03.839Z,49.60
2019-05-13T12:29:33.456Z,50.00
2019-05-13T12:32:03.451Z,49.20
2019-05-13T12:34:40.439Z,48.50
2019-05-13T12:37:04.550Z,50.10
2019-05-13T12:39:34.038Z,51.00
2019-05-13T12:42:03.777Z,51.40
2019-05-13T12:44:33.771Z,49.20
2019-05-13T12:47:03.513Z,47.60
2019-05-13T12:49:36.375Z,47.20
2019-05-13T12:52:04.793Z,48.90
2019-05-13T12:54:34.337Z,48.40
2019-05-13T12:57:03.922Z,48.60
2019-05-13T12:59:33.585Z,52.20
2019-05-13T13:02:03.493Z,49.80
2019-05-13T13:04:33.819Z,50.00
2019-05-13T13:07:03.525Z,50.30
2019-05-13T13:09:33.737Z,49.60
2019-05-13T13:12:03.464Z,50.70
2019-05-13T13:17:04.429Z,50.00
2019-05-13T13:19:34.273Z,48.70
2019-05-13T13:22:07.885Z,51.90
2019-05-13T13:24:35.894Z,50.70
2019-05-13T13:27:14.574Z,50.00
2019-05-13T13:29:36.855Z,50.80
2019-05-13T13:32:06.218Z,50.00
2019-05-13T13:34:35.874Z,49.60
2019-05-13T13:37:05.450Z,48.50
2019-05-13T13:39:35.206Z,49.80
2019-05-13T13:42:05.719Z,48.80
2019-05-13T13:44:35.322Z,48.60
2019-05-13T13:47:04.678Z,48.60
2019-05-13T13:49:35.322Z,50.20
2019-05-13T13:52:06.157Z,49.50
2019-05-13T13:54:35.763Z,50.30
2019-05-13T13:57:05.093Z,49.60
2019-05-13T13:59:36.031Z,48.50
2019-05-13T14:02:05.877Z,48.60
2019-05-13T14:04:36.328Z,48.70
2019-05-13T14:06:25.162Z,54.20
2019-05-13T14:06:50.058Z,48.20
2019-05-13T14:07:22.954Z,50.50
2019-05-13T14:09:36.856Z,50.30
2019-05-13T14:12:06.154Z,49.50
2019-05-13T14:14:35.740Z,48.80
2019-05-13T14:17:05.453Z,49.10
2019-05-13T14:19:34.743Z,50.70
2019-05-13T14:22:04.252Z,50.50
2019-05-13T14:24:33.534Z,52.40
2019-05-13T14:27:03.244Z,50.60
2019-05-13T14:29:40.497Z,51.40
2019-05-13T14:32:03.750Z,48.80
2019-05-13T14:34:33.080Z,49.00
2019-05-13T14:37:02.351Z,48.80
2019-05-13T14:39:32.025Z,48.50
2019-05-13T14:42:02.787Z,48.30
2019-05-13T14:44:32.602Z,47.50
2019-05-13T14:47:02.009Z,48.00
2019-05-13T14:49:31.845Z,48.20
2019-05-13T14:52:01.440Z,48.30
2019-05-13T14:54:31.318Z,48.30
2019-05-13T14:57:02.388Z,48.20
2019-05-13T14:59:31.919Z,47.50
2019-05-13T15:02:01.510Z,48.00
2019-05-13T15:04:32.526Z,48.90
2019-05-13T15:07:03.457Z,48.90
2019-05-13T15:09:33.070Z,49.00
2019-05-13T15:12:02.490Z,48.00
2019-05-13T15:14:32.987Z,48.20
2019-05-13T15:17:07.089Z,47.50
2019-05-13T15:19:33.694Z,47.20
2019-05-13T15:22:03.370Z,48.20
2019-05-13T15:24:32.710Z,48.00
2019-05-13T15:27:02.120Z,48.30
2019-05-13T15:29:31.551Z,48.20
2019-05-13T15:32:02.114Z,47.10
2019-05-13T15:34:31.940Z,47.40
2019-05-13T15:37:02.092Z,47.60
2019-05-13T15:39:32.296Z,47.30
2019-05-13T15:42:02.221Z,47.30
2019-05-13T15:44:32.920Z,46.90
2019-05-13T15:47:07.212Z,46.80
2019-05-13T15:49:33.464Z,46.00
2019-05-13T15:52:02.757Z,46.20
2019-05-13T15:54:32.711Z,47.50
2019-05-13T15:57:02.535Z,46.80
2019-05-13T15:59:32.010Z,47.10
2019-05-13T16:02:02.417Z,46.30
2019-05-13T16:04:32.319Z,47.80
2019-05-13T16:07:01.951Z,46.10
2019-05-13T16:09:31.530Z,47.40
2019-05-13T16:12:01.726Z,45.20
2019-05-13T16:14:31.668Z,46.70
2019-05-13T16:17:01.181Z,46.50
2019-05-13T16:19:32.685Z,46.60
2019-05-13T16:22:02.049Z,47.00
2019-05-13T16:24:32.255Z,47.30
2019-05-13T16:27:02.580Z,47.30
2019-05-13T16:29:32.177Z,45.90
2019-05-13T16:32:01.797Z,46.60
2019-05-13T16:34:31.863Z,46.30
2019-05-13T16:37:02.434Z,46.40
2019-05-13T16:39:32.164Z,46.30
2019-05-13T16:42:01.730Z,46.10
2019-05-13T16:44:31.865Z,46.70
2019-05-13T16:47:01.680Z,48.00
2019-05-13T16:49:31.860Z,47.50
2019-05-13T16:52:02.505Z,46.60
2019-05-13T16:54:32.901Z,46.80
2019-05-13T16:57:02.490Z,46.50
2019-05-13T16:59:31.795Z,47.30
2019-05-13T17:02:01.781Z,46.10
2019-05-13T17:04:32.203Z,47.60
2019-05-13T17:07:01.845Z,46.00
2019-05-13T17:09:32.301Z,46.00
2019-05-13T17:12:01.995Z,46.90
2019-05-13T17:14:32.713Z,46.90
2019-05-13T17:17:03.082Z,47.10
2019-05-13T17:19:32.358Z,48.30
2019-05-13T17:22:02.583Z,48.00
2019-05-13T17:24:32.176Z,48.50
2019-05-13T17:27:02.441Z,48.30
2019-05-13T17:29:32.421Z,48.80
2019-05-13T17:32:02.538Z,48.40
2019-05-13T17:34:32.155Z,48.20
2019-05-13T17:37:02.755Z,49.20
2019-05-13T17:39:32.682Z,50.10
2019-05-13T17:42:03.936Z,49.30
2019-05-13T17:44:33.241Z,49.60
2019-05-13T17:47:02.519Z,50.00
2019-05-13T17:49:33.160Z,49.60
2019-05-13T17:52:02.689Z,48.50
2019-05-13T17:54:32.221Z,49.20
2019-05-13T17:57:02.072Z,48.40
2019-05-13T17:59:31.906Z,48.70
2019-05-13T18:02:02.659Z,49.40
2019-05-13T18:04:33.188Z,49.00
2019-05-13T18:07:02.490Z,49.20
2019-05-13T18:09:32.208Z,49.10
2019-05-13T18:12:02.358Z,49.60
2019-05-13T18:14:32.026Z,49.90
2019-05-13T18:17:02.111Z,50.20
2019-05-13T18:19:31.960Z,50.70
2019-05-13T18:22:02.271Z,50.90
2019-05-13T18:24:32.193Z,51.30
2019-05-13T18:27:02.017Z,51.20
2019-05-13T18:29:31.832Z,51.60
2019-05-13T18:32:02.036Z,52.60
2019-05-13T18:34:32.252Z,51.70
2019-05-13T18:37:02.636Z,51.90
2019-05-13T18:39:32.485Z,52.90
2019-05-13T18:42:01.861Z,51.80
2019-05-13T18:44:31.714Z,52.50
2019-05-13T18:47:01.652Z,53.40
2019-05-13T18:49:31.897Z,53.50
2019-05-13T18:52:01.433Z,54.20
2019-05-13T18:54:31.647Z,54.50
2019-05-13T18:57:01.797Z,54.70
2019-05-13T18:59:32.231Z,55.40
2019-05-13T19:02:01.824Z,58.10
2019-05-13T19:04:31.492Z,58.10
2019-05-13T19:07:02.307Z,57.90
2019-05-13T19:09:31.814Z,58.90
2019-05-13T19:12:01.634Z,59.20
2019-05-13T19:14:31.852Z,58.50
2019-05-13T19:17:01.891Z,58.90
2019-05-13T19:19:31.662Z,60.80
2019-05-13T19:22:02.281Z,61.90
2019-05-13T19:24:31.741Z,62.60
2019-05-13T19:27:01.663Z,63.20
2019-05-13T19:29:31.983Z,63.20
2019-05-13T19:32:02.054Z,62.50
2019-05-13T19:34:32.409Z,62.00
2019-05-13T19:37:02.594Z,63.70
2019-05-13T19:39:32.084Z,64.70
2019-05-13T19:42:01.382Z,65.60
2019-05-13T19:44:31.549Z,66.20
2019-05-13T19:47:01.928Z,65.90
2019-05-13T19:49:37.041Z,66.10
2019-05-13T19:52:03.965Z,66.50
2019-05-13T19:54:33.305Z,66.60
2019-05-13T19:57:02.836Z,66.40
2019-05-13T19:59:32.371Z,65.90
2019-05-13T20:02:02.050Z,65.30
2019-05-13T20:04:31.653Z,66.40
2019-05-13T20:07:00.917Z,67.10
2019-05-13T20:09:32.170Z,66.70
2019-05-13T20:12:02.025Z,67.40
2019-05-13T20:14:31.722Z,68.50
2019-05-13T20:17:01.705Z,68.80
2019-05-13T20:19:45.677Z,68.90
2019-05-13T20:22:02.489Z,68.60
2019-05-13T20:24:32.214Z,68.40
2019-05-13T20:27:01.821Z,68.70
2019-05-13T20:29:31.671Z,68.70
2019-05-13T20:32:01.453Z,69.20
2019-05-13T20:34:32.148Z,69.30
2019-05-13T20:37:02.185Z,68.50
2019-05-13T20:39:32.065Z,69.50
2019-05-13T20:42:01.807Z,69.80
2019-05-13T20:44:31.472Z,69.60
2019-05-13T20:47:01.699Z,68.90
2019-05-13T20:49:31.344Z,68.20
2019-05-13T20:52:00.751Z,66.00
2019-05-13T20:54:31.421Z,63.90
2019-05-13T20:57:01.998Z,63.00
2019-05-13T20:59:32.295Z,63.00
2019-05-13T21:02:02.309Z,63.10
2019-05-13T21:04:32.324Z,63.10
2019-05-13T21:07:02.282Z,63.70
2019-05-13T21:09:31.828Z,63.70
2019-05-13T21:12:01.960Z,63.70
2019-05-13T21:14:32.023Z,63.40
2019-05-13T21:17:01.599Z,63.90
2019-05-13T21:19:39.191Z,63.90
2019-05-13T21:22:03.533Z,63.80
2019-05-13T21:24:33.141Z,64.00
2019-05-13T21:27:02.438Z,63.90
2019-05-13T21:29:32.280Z,64.10
2019-05-13T21:32:02.173Z,64.20
2019-05-13T21:34:31.790Z,64.10
2019-05-13T21:37:02.406Z,64.40
2019-05-13T21:39:32.088Z,64.80
2019-05-13T21:42:02.392Z,65.00
2019-05-13T21:44:32.652Z,65.00
2019-05-13T21:47:02.368Z,65.00
2019-05-13T21:49:32.141Z,65.20
2019-05-13T21:52:01.899Z,65.60
2019-05-13T21:54:33.379Z,65.80
2019-05-13T21:57:02.559Z,66.00
2019-05-13T21:59:32.080Z,66.20
2019-05-13T22:02:01.763Z,66.70
2019-05-13T22:04:31.143Z,66.70
2019-05-13T22:07:01.524Z,66.80
2019-05-13T22:09:31.748Z,66.60
2019-05-13T22:12:01.961Z,67.00
2019-05-13T22:14:32.016Z,67.00
2019-05-13T22:17:01.814Z,67.50
2019-05-13T22:19:31.749Z,67.70
2019-05-13T22:22:02.297Z,68.00
2019-05-13T22:24:31.854Z,68.30
2019-05-13T22:27:01.882Z,68.50
2019-05-13T22:29:32.083Z,68.70
2019-05-13T22:32:02.287Z,69.00
2019-05-13T22:34:32.046Z,69.10
2019-05-13T22:37:02.684Z,69.70
2019-05-13T22:39:34.638Z,69.80
2019-05-13T22:42:03.068Z,70.00
2019-05-13T22:44:32.781Z,70.40
2019-05-13T22:47:02.609Z,70.50
2019-05-13T22:49:32.076Z,70.90
2019-05-13T22:52:01.611Z,71.30
2019-05-13T22:54:31.865Z,71.10
2019-05-13T22:57:01.461Z,71.30
2019-05-13T22:59:32.211Z,71.30
2019-05-13T23:02:01.689Z,71.60
2019-05-13T23:04:31.514Z,71.60
2019-05-13T23:07:01.432Z,71.80
2019-05-13T23:09:32.163Z,71.70
2019-05-13T23:12:01.808Z,72.10
2019-05-13T23:14:31.224Z,72.20
2019-05-13T23:17:02.228Z,72.40
2019-05-13T23:19:32.453Z,72.50
2019-05-13T23:22:01.849Z,72.60
2019-05-13T23:24:31.308Z,72.70
2019-05-13T23:27:02.107Z,72.20
2019-05-13T23:29:32.020Z,72.30
2019-05-13T23:32:01.653Z,72.30
2019-05-13T23:34:31.868Z,72.60
2019-05-13T23:37:01.457Z,72.40
2019-05-13T23:39:32.195Z,72.60
2019-05-13T23:42:01.586Z,72.60
2019-05-13T23:44:32.262Z,72.70
2019-05-13T23:47:02.565Z,72.70
2019-05-13T23:49:32.113Z,73.00
2019-05-13T23:52:02.486Z,73.00
2019-05-13T23:54:31.992Z,73.60
2019-05-13T23:57:01.313Z,73.50
2019-05-13T23:59:31.265Z,73.30
